sensor_id;sensor_type;location;lat;lon;timestamp;pressure;altitude;pressure_sealevel;temperature;humidity
11605;BME280;5858;43.076;25.626;2023-12-04T00:01:52;99945.13;;;3.68;100.00
11605;BME280;5858;43.076;25.626;2023-12-04T00:04:19;100022.13;;;4.19;100.00
11605;BME280;5858;43.076;25.626;2023-12-04T00:06:46;100036.34;;;4.18;100.00
11605;BME280;5858;43.076;25.626;2023-12-04T00:09:13;100024.69;;;4.09;100.00
11605;BME280;5858;43.076;25.626;2023-12-04T00:11:40;100019.53;;;4.08;100.00
11605;BME280;5858;43.076;25.626;2023-12-04T00:14:07;100038.44;;;4.03;100.00
11605;BME280;5858;43.076;25.626;2023-12-04T00:16:35;100019.31;;;4.00;100.00
11605;BME280;5858;43.076;25.626;2023-12-04T00:19:02;100061.16;;;4.17;100.00
11605;BME280;5858;43.076;25.626;2023-12-04T00:21:29;100010.41;;;4.01;100.00
11605;BME280;5858;43.076;25.626;2023-12-04T00:23:55;99977.59;;;3.92;100.00
11605;BME280;5858;43.076;25.626;2023-12-04T00:26:23;99966.16;;;3.92;99.52
11605;BME280;5858;43.076;25.626;2023-12-04T00:28:50;100021.16;;;4.31;98.94
11605;BME280;5858;43.076;25.626;2023-12-04T00:31:16;100041.84;;;4.37;98.37
11605;BME280;5858;43.076;25.626;2023-12-04T00:33:45;100043.28;;;4.41;96.59
11605;BME280;5858;43.076;25.626;2023-12-04T00:36:13;99950.31;;;3.69;94.34
11605;BME280;5858;43.076;25.626;2023-12-04T00:38:40;100057.75;;;4.37;95.42
11605;BME280;5858;43.076;25.626;2023-12-04T00:41:07;100064.25;;;4.33;95.18
11605;BME280;5858;43.076;25.626;2023-12-04T00:43:34;100060.44;;;4.26;93.16
11605;BME280;5858;43.076;25.626;2023-12-04T00:46:01;100017.53;;;3.89;90.21
11605;BME280;5858;43.076;25.626;2023-12-04T00:48:28;99974.75;;;3.62;91.75
11605;BME280;5858;43.076;25.626;2023-12-04T00:50:57;99947.13;;;3.32;87.99
11605;BME280;5858;43.076;25.626;2023-12-04T00:53:24;100036.41;;;3.96;90.71
11605;BME280;5858;43.076;25.626;2023-12-04T00:55:51;100042.69;;;3.95;89.01
11605;BME280;5858;43.076;25.626;2023-12-04T00:58:18;100040.44;;;3.79;89.36
11605;BME280;5858;43.076;25.626;2023-12-04T01:00:45;100037.75;;;3.68;85.66
11605;BME280;5858;43.076;25.626;2023-12-04T01:03:14;100082.25;;;3.74;82.60
11605;BME280;5858;43.076;25.626;2023-12-04T01:05:41;100018.63;;;3.31;83.35
11605;BME280;5858;43.076;25.626;2023-12-04T01:08:09;100080.34;;;3.65;85.17
11605;BME280;5858;43.076;25.626;2023-12-04T01:10:36;100080.84;;;3.47;82.15
11605;BME280;5858;43.076;25.626;2023-12-04T01:13:03;100059.19;;;3.42;83.21
11605;BME280;5858;43.076;25.626;2023-12-04T01:15:30;99873.88;;;2.21;82.82
11605;BME280;5858;43.076;25.626;2023-12-04T01:17:57;99904.75;;;2.32;82.56
11605;BME280;5858;43.076;25.626;2023-12-04T01:20:26;100017.78;;;2.97;83.17
11605;BME280;5858;43.076;25.626;2023-12-04T01:22:52;100088.53;;;3.39;83.17
11605;BME280;5858;43.076;25.626;2023-12-04T01:25:21;100022.22;;;2.96;82.77
11605;BME280;5858;43.076;25.626;2023-12-04T01:27:48;100062.63;;;3.09;84.25
11605;BME280;5858;43.076;25.626;2023-12-04T01:30:15;99993.94;;;2.74;84.37
11605;BME280;5858;43.076;25.626;2023-12-04T01:32:42;100104.41;;;3.62;84.13
11605;BME280;5858;43.076;25.626;2023-12-04T01:35:08;100093.56;;;3.65;86.34
11605;BME280;5858;43.076;25.626;2023-12-04T01:37:37;100101.41;;;3.66;86.09
11605;BME280;5858;43.076;25.626;2023-12-04T01:40:05;100064.25;;;3.45;87.24
11605;BME280;5858;43.076;25.626;2023-12-04T01:42:34;100083.97;;;3.86;87.37
11605;BME280;5858;43.076;25.626;2023-12-04T01:45:01;100078.19;;;3.70;88.17
11605;BME280;5858;43.076;25.626;2023-12-04T01:47:28;100028.13;;;3.22;84.63
11605;BME280;5858;43.076;25.626;2023-12-04T01:49:55;100106.47;;;3.81;85.06
11605;BME280;5858;43.076;25.626;2023-12-04T01:52:22;100004.69;;;3.17;86.00
11605;BME280;5858;43.076;25.626;2023-12-04T01:54:49;100064.97;;;3.47;84.33
11605;BME280;5858;43.076;25.626;2023-12-04T01:57:16;100096.50;;;3.84;84.62
11605;BME280;5858;43.076;25.626;2023-12-04T01:59:45;100102.84;;;3.93;86.46
11605;BME280;5858;43.076;25.626;2023-12-04T02:02:12;100087.81;;;3.93;86.87
11605;BME280;5858;43.076;25.626;2023-12-04T02:04:40;100043.16;;;3.22;85.98
11605;BME280;5858;43.076;25.626;2023-12-04T02:07:07;100107.44;;;3.79;84.84
11605;BME280;5858;43.076;25.626;2023-12-04T02:09:34;100089.97;;;3.55;82.90
11605;BME280;5858;43.076;25.626;2023-12-04T02:12:02;99996.63;;;2.86;82.90
11605;BME280;5858;43.076;25.626;2023-12-04T02:14:29;99995.44;;;3.01;82.43
11605;BME280;5858;43.076;25.626;2023-12-04T02:16:58;100077.56;;;3.66;84.54
11605;BME280;5858;43.076;25.626;2023-12-04T02:19:27;100115.25;;;3.92;83.00
11605;BME280;5858;43.076;25.626;2023-12-04T02:21:54;100107.31;;;3.81;84.51
11605;BME280;5858;43.076;25.626;2023-12-04T02:24:22;100040.66;;;3.31;83.86
11605;BME280;5858;43.076;25.626;2023-12-04T02:26:53;100125.34;;;3.87;84.55
11605;BME280;5858;43.076;25.626;2023-12-04T02:29:25;100065.69;;;3.38;84.13
11605;BME280;5858;43.076;25.626;2023-12-04T02:31:56;100146.53;;;3.87;83.98
11605;BME280;5858;43.076;25.626;2023-12-04T02:34:25;100132.81;;;4.04;84.91
11605;BME280;5858;43.076;25.626;2023-12-04T02:36:53;100075.19;;;3.63;85.60
11605;BME280;5858;43.076;25.626;2023-12-04T02:39:20;100131.00;;;4.05;85.99
11605;BME280;5858;43.076;25.626;2023-12-04T02:41:49;100103.31;;;3.75;86.44
11605;BME280;5858;43.076;25.626;2023-12-04T02:44:15;100152.31;;;3.92;80.75
11605;BME280;5858;43.076;25.626;2023-12-04T02:46:43;100104.03;;;3.66;80.25
11605;BME280;5858;43.076;25.626;2023-12-04T02:49:09;100132.69;;;3.84;82.19
11605;BME280;5858;43.076;25.626;2023-12-04T02:51:36;100127.63;;;3.69;81.79
11605;BME280;5858;43.076;25.626;2023-12-04T02:54:03;100088.88;;;3.46;82.92
11605;BME280;5858;43.076;25.626;2023-12-04T02:56:30;99996.56;;;2.74;82.67
11605;BME280;5858;43.076;25.626;2023-12-04T02:58:58;100143.53;;;3.81;83.43
11605;BME280;5858;43.076;25.626;2023-12-04T03:01:25;100059.06;;;3.33;83.19
11605;BME280;5858;43.076;25.626;2023-12-04T03:03:52;100068.22;;;3.40;84.49
11605;BME280;5858;43.076;25.626;2023-12-04T03:06:19;100080.22;;;3.33;82.52
11605;BME280;5858;43.076;25.626;2023-12-04T03:08:46;100073.13;;;3.33;82.19
11605;BME280;5858;43.076;25.626;2023-12-04T03:11:13;100023.91;;;2.86;82.07
11605;BME280;5858;43.076;25.626;2023-12-04T03:13:41;100058.28;;;2.97;78.93
11605;BME280;5858;43.076;25.626;2023-12-04T03:16:16;100129.03;;;3.40;81.25
11605;BME280;5858;43.076;25.626;2023-12-04T03:18:43;100096.16;;;3.20;79.07
11605;BME280;5858;43.076;25.626;2023-12-04T03:21:10;100189.81;;;3.64;77.09
11605;BME280;5858;43.076;25.626;2023-12-04T03:23:37;100164.28;;;3.52;78.80
11605;BME280;5858;43.076;25.626;2023-12-04T03:26:04;100068.13;;;2.95;77.34
11605;BME280;5858;43.076;25.626;2023-12-04T05:28:42;100165.94;;;1.47;72.23
11605;BME280;5858;43.076;25.626;2023-12-04T05:40:10;100057.75;;;0.58;71.96
11605;BME280;5858;43.076;25.626;2023-12-04T06:03:59;100291.66;;;2.12;72.24
11605;BME280;5858;43.076;25.626;2023-12-04T06:06:28;100105.56;;;1.05;71.88
11605;BME280;5858;43.076;25.626;2023-12-04T06:09:03;100076.28;;;0.97;72.51
11605;BME280;5858;43.076;25.626;2023-12-04T06:11:33;100161.28;;;1.51;73.90
11605;BME280;5858;43.076;25.626;2023-12-04T06:14:18;100308.44;;;2.36;71.59
11605;BME280;5858;43.076;25.626;2023-12-04T06:16:45;100122.56;;;1.13;69.18
11605;BME280;5858;43.076;25.626;2023-12-04T06:19:25;100214.25;;;1.73;70.90
11605;BME280;5858;43.076;25.626;2023-12-04T06:22:00;100105.38;;;1.08;72.80
11605;BME280;5858;43.076;25.626;2023-12-04T06:24:27;100232.22;;;2.06;73.10
11605;BME280;5858;43.076;25.626;2023-12-04T06:27:00;100322.38;;;2.51;71.73
11605;BME280;5858;43.076;25.626;2023-12-04T06:29:32;100323.13;;;2.40;68.48
11605;BME280;5858;43.076;25.626;2023-12-04T06:32:08;100149.75;;;1.26;69.72
11605;BME280;5858;43.076;25.626;2023-12-04T06:34:45;100316.91;;;2.41;71.10
11605;BME280;5858;43.076;25.626;2023-12-04T06:37:23;100246.56;;;2.15;74.32
11605;BME280;5858;43.076;25.626;2023-12-04T06:39:50;100312.84;;;2.61;74.95
11605;BME280;5858;43.076;25.626;2023-12-04T06:46:27;100135.63;;;1.27;76.08
11605;BME280;5858;43.076;25.626;2023-12-04T06:56:52;100121.72;;;1.25;82.21
11605;BME280;5858;43.076;25.626;2023-12-04T07:02:31;100236.75;;;2.17;80.67
11605;BME280;5858;43.076;25.626;2023-12-04T07:05:28;100319.59;;;2.65;79.83
11605;BME280;5858;43.076;25.626;2023-12-04T07:08:18;100315.19;;;2.53;82.81
11605;BME280;5858;43.076;25.626;2023-12-04T07:10:48;100325.34;;;2.59;82.96
11605;BME280;5858;43.076;25.626;2023-12-04T07:13:15;100157.19;;;1.47;82.81
11605;BME280;5858;43.076;25.626;2023-12-04T07:15:53;100249.63;;;2.09;83.79
11605;BME280;5858;43.076;25.626;2023-12-04T07:25:53;100157.25;;;1.33;86.91
11605;BME280;5858;43.076;25.626;2023-12-04T07:32:02;100255.75;;;2.09;84.31
11605;BME280;5858;43.076;25.626;2023-12-04T07:40:56;100218.91;;;1.82;72.69
11605;BME280;5858;43.076;25.626;2023-12-04T07:43:57;100157.47;;;1.30;73.34
11605;BME280;5858;43.076;25.626;2023-12-04T07:50:35;100342.84;;;2.86;76.99
11605;BME280;5858;43.076;25.626;2023-12-04T07:53:17;100146.53;;;1.61;65.35
11605;BME280;5858;43.076;25.626;2023-12-04T07:55:46;100213.94;;;2.03;68.89
11605;BME280;5858;43.076;25.626;2023-12-04T07:58:15;100249.94;;;2.17;69.14
11605;BME280;5858;43.076;25.626;2023-12-04T08:00:44;100315.03;;;2.80;61.73
11605;BME280;5858;43.076;25.626;2023-12-04T08:03:11;100263.88;;;2.44;61.09
11605;BME280;5858;43.076;25.626;2023-12-04T08:05:38;100350.09;;;3.07;59.80
11605;BME280;5858;43.076;25.626;2023-12-04T08:08:08;100352.94;;;3.04;67.89
11605;BME280;5858;43.076;25.626;2023-12-04T08:10:35;100351.53;;;3.11;71.33
11605;BME280;5858;43.076;25.626;2023-12-04T08:13:07;100318.84;;;2.76;72.17
11605;BME280;5858;43.076;25.626;2023-12-04T08:15:37;100291.13;;;2.81;72.93
11605;BME280;5858;43.076;25.626;2023-12-04T08:18:04;100347.28;;;3.22;70.75
11605;BME280;5858;43.076;25.626;2023-12-04T08:20:33;100286.22;;;3.01;72.63
11605;BME280;5858;43.076;25.626;2023-12-04T08:23:00;100342.31;;;2.93;70.08
11605;BME280;5858;43.076;25.626;2023-12-04T08:25:31;100248.00;;;2.44;69.28
11605;BME280;5858;43.076;25.626;2023-12-04T08:28:14;100255.81;;;2.46;70.52
11605;BME280;5858;43.076;25.626;2023-12-04T08:30:56;100173.97;;;2.33;69.14
11605;BME280;5858;43.076;25.626;2023-12-04T08:33:27;100210.59;;;2.50;68.26
11605;BME280;5858;43.076;25.626;2023-12-04T08:36:00;100330.44;;;3.35;65.12
11605;BME280;5858;43.076;25.626;2023-12-04T08:38:29;100226.44;;;2.87;66.17
11605;BME280;5858;43.076;25.626;2023-12-04T08:40:58;100285.00;;;3.17;65.56
11605;BME280;5858;43.076;25.626;2023-12-04T08:43:24;100380.22;;;3.65;64.28
11605;BME280;5858;43.076;25.626;2023-12-04T08:46:01;100356.88;;;3.59;64.09
11605;BME280;5858;43.076;25.626;2023-12-04T08:48:44;100258.91;;;2.76;61.95
11605;BME280;5858;43.076;25.626;2023-12-04T08:51:30;100362.66;;;3.64;61.08
11605;BME280;5858;43.076;25.626;2023-12-04T08:53:57;100212.84;;;2.68;57.99
11605;BME280;5858;43.076;25.626;2023-12-04T08:56:41;100181.97;;;2.44;56.84
11605;BME280;5858;43.076;25.626;2023-12-04T08:59:33;100331.56;;;3.44;55.40
11605;BME280;5858;43.076;25.626;2023-12-04T09:02:04;100267.94;;;3.22;57.21
11605;BME280;5858;43.076;25.626;2023-12-04T09:04:43;100272.63;;;3.42;58.07
11605;BME280;5858;43.076;25.626;2023-12-04T09:07:36;100153.66;;;2.70;55.26
11605;BME280;5858;43.076;25.626;2023-12-04T09:10:06;100183.50;;;3.07;55.13
11605;BME280;5858;43.076;25.626;2023-12-04T09:13:01;100253.75;;;3.46;55.45
11605;BME280;5858;43.076;25.626;2023-12-04T09:15:42;100265.25;;;3.69;55.90
11605;BME280;5858;43.076;25.626;2023-12-04T09:18:16;100185.38;;;3.29;54.85
11605;BME280;5858;43.076;25.626;2023-12-04T09:21:08;100132.19;;;3.10;52.95
11605;BME280;5858;43.076;25.626;2023-12-04T09:23:35;100240.28;;;3.85;51.04
11605;BME280;5858;43.076;25.626;2023-12-04T09:26:08;100320.47;;;4.20;52.00
11605;BME280;5858;43.076;25.626;2023-12-04T09:28:36;100268.09;;;4.01;53.64
11605;BME280;5858;43.076;25.626;2023-12-04T09:31:03;100237.88;;;3.93;52.77
11605;BME280;5858;43.076;25.626;2023-12-04T09:33:38;100296.81;;;4.41;51.77
11605;BME280;5858;43.076;25.626;2023-12-04T09:36:05;100148.22;;;3.31;50.71
11605;BME280;5858;43.076;25.626;2023-12-04T09:38:33;100131.25;;;3.11;51.74
11605;BME280;5858;43.076;25.626;2023-12-04T09:41:02;100287.59;;;4.11;52.80
11605;BME280;5858;43.076;25.626;2023-12-04T09:43:30;100217.53;;;3.82;54.32
11605;BME280;5858;43.076;25.626;2023-12-04T09:45:58;100145.38;;;3.34;53.44
11605;BME280;5858;43.076;25.626;2023-12-04T09:48:27;100173.38;;;3.83;51.71
11605;BME280;5858;43.076;25.626;2023-12-04T09:51:04;100312.81;;;4.51;51.38
11605;BME280;5858;43.076;25.626;2023-12-04T09:53:57;100112.44;;;3.38;51.87
11605;BME280;5858;43.076;25.626;2023-12-04T09:56:38;100240.56;;;4.26;50.34
11605;BME280;5858;43.076;25.626;2023-12-04T09:59:14;100237.78;;;4.28;50.57
11605;BME280;5858;43.076;25.626;2023-12-04T10:01:48;100197.31;;;4.15;51.06
11605;BME280;5858;43.076;25.626;2023-12-04T10:04:19;100270.53;;;4.49;49.52
11605;BME280;5858;43.076;25.626;2023-12-04T10:07:04;100271.00;;;4.65;49.86
11605;BME280;5858;43.076;25.626;2023-12-04T10:09:32;100115.94;;;3.72;50.40
11605;BME280;5858;43.076;25.626;2023-12-04T10:12:03;100163.00;;;4.24;50.84
11605;BME280;5858;43.076;25.626;2023-12-04T10:14:37;100214.97;;;4.81;50.90
11605;BME280;5858;43.076;25.626;2023-12-04T10:17:15;100204.09;;;4.84;51.49
11605;BME280;5858;43.076;25.626;2023-12-04T10:19:43;100217.25;;;4.86;49.56
11605;BME280;5858;43.076;25.626;2023-12-04T10:22:11;100267.19;;;5.45;48.99
11605;BME280;5858;43.076;25.626;2023-12-04T10:24:39;100264.34;;;5.36;48.81
11605;BME280;5858;43.076;25.626;2023-12-04T10:27:14;100109.78;;;4.27;48.77
11605;BME280;5858;43.076;25.626;2023-12-04T10:30:20;100189.28;;;4.82;49.85
11605;BME280;5858;43.076;25.626;2023-12-04T10:32:57;100187.56;;;4.92;52.11
11605;BME280;5858;43.076;25.626;2023-12-04T10:35:37;100127.47;;;4.70;49.52
11605;BME280;5858;43.076;25.626;2023-12-04T10:38:07;100218.38;;;5.36;49.11
11605;BME280;5858;43.076;25.626;2023-12-04T10:40:46;100218.31;;;5.26;47.78
11605;BME280;5858;43.076;25.626;2023-12-04T10:43:17;100051.78;;;4.13;47.85
11605;BME280;5858;43.076;25.626;2023-12-04T10:45:46;100259.94;;;5.15;48.37
11605;BME280;5858;43.076;25.626;2023-12-04T10:48:43;100249.72;;;5.10;49.23
11605;BME280;5858;43.076;25.626;2023-12-04T10:51:15;100189.66;;;4.77;47.48
11605;BME280;5858;43.076;25.626;2023-12-04T10:54:12;100097.44;;;3.94;47.65
11605;BME280;5858;43.076;25.626;2023-12-04T10:59:27;100147.00;;;4.26;47.95
11605;BME280;5858;43.076;25.626;2023-12-04T11:02:18;100162.97;;;4.47;47.73
11605;BME280;5858;43.076;25.626;2023-12-04T11:04:58;100085.75;;;3.97;48.93
11605;BME280;5858;43.076;25.626;2023-12-04T11:07:47;100131.13;;;4.26;48.60
11605;BME280;5858;43.076;25.626;2023-12-04T11:10:23;100215.91;;;4.91;49.47
11605;BME280;5858;43.076;25.626;2023-12-04T11:13:06;100247.66;;;5.14;47.65
11605;BME280;5858;43.076;25.626;2023-12-04T11:15:39;100134.91;;;4.44;48.42
11605;BME280;5858;43.076;25.626;2023-12-04T11:18:07;100174.22;;;4.71;50.00
11605;BME280;5858;43.076;25.626;2023-12-04T11:20:46;100141.84;;;4.67;47.16
11605;BME280;5858;43.076;25.626;2023-12-04T11:23:30;100090.13;;;4.41;48.90
11605;BME280;5858;43.076;25.626;2023-12-04T11:26:17;100143.84;;;4.86;49.81
11605;BME280;5858;43.076;25.626;2023-12-04T11:28:45;100180.94;;;5.18;50.19
11605;BME280;5858;43.076;25.626;2023-12-04T11:31:15;100230.81;;;5.56;49.05
11605;BME280;5858;43.076;25.626;2023-12-04T11:33:46;100091.94;;;4.72;47.65
11605;BME280;5858;43.076;25.626;2023-12-04T11:36:13;100176.19;;;5.33;47.40
11605;BME280;5858;43.076;25.626;2023-12-04T11:39:14;100231.50;;;5.90;46.78
11605;BME280;5858;43.076;25.626;2023-12-04T11:41:43;100020.84;;;4.78;48.29
11605;BME280;5858;43.076;25.626;2023-12-04T11:44:12;100093.47;;;5.07;46.27
11605;BME280;5858;43.076;25.626;2023-12-04T11:46:55;100169.91;;;5.76;48.42
11605;BME280;5858;43.076;25.626;2023-12-04T11:49:31;100237.06;;;5.87;46.08
11605;BME280;5858;43.076;25.626;2023-12-04T11:51:59;100107.59;;;5.28;48.39
11605;BME280;5858;43.076;25.626;2023-12-04T11:54:28;100140.16;;;5.61;49.11
11605;BME280;5858;43.076;25.626;2023-12-04T11:57:36;100092.81;;;5.15;49.06
11605;BME280;5858;43.076;25.626;2023-12-04T12:00:23;100168.75;;;5.89;47.48
11605;BME280;5858;43.076;25.626;2023-12-04T12:03:05;100199.31;;;6.14;47.05
11605;BME280;5858;43.076;25.626;2023-12-04T12:05:37;100105.09;;;5.57;46.65
11605;BME280;5858;43.076;25.626;2023-12-04T12:08:07;100182.97;;;5.88;46.97
11605;BME280;5858;43.076;25.626;2023-12-04T12:10:36;100173.56;;;5.84;47.18
11605;BME280;5858;43.076;25.626;2023-12-04T12:13:04;100085.78;;;5.25;48.50
11605;BME280;5858;43.076;25.626;2023-12-04T12:15:34;100097.69;;;5.30;47.26
11605;BME280;5858;43.076;25.626;2023-12-04T12:18:01;100198.91;;;5.88;47.28
11605;BME280;5858;43.076;25.626;2023-12-04T12:20:30;100207.59;;;5.90;47.50
11605;BME280;5858;43.076;25.626;2023-12-04T12:22:56;100105.19;;;5.25;48.54
11605;BME280;5858;43.076;25.626;2023-12-04T12:25:23;100204.44;;;5.76;48.36
11605;BME280;5858;43.076;25.626;2023-12-04T12:27:51;100188.94;;;5.60;48.52
11605;BME280;5858;43.076;25.626;2023-12-04T12:30:22;100083.31;;;4.91;47.64
11605;BME280;5858;43.076;25.626;2023-12-04T12:32:50;100084.41;;;4.89;48.82
11605;BME280;5858;43.076;25.626;2023-12-04T12:35:17;100079.41;;;4.74;48.80
11605;BME280;5858;43.076;25.626;2023-12-04T12:37:44;100185.06;;;5.43;48.75
11605;BME280;5858;43.076;25.626;2023-12-04T12:40:14;100178.84;;;5.33;49.01
11605;BME280;5858;43.076;25.626;2023-12-04T12:42:41;100094.09;;;4.79;49.50
11605;BME280;5858;43.076;25.626;2023-12-04T12:45:12;100067.06;;;4.53;49.61
11605;BME280;5858;43.076;25.626;2023-12-04T12:47:55;100173.94;;;5.17;49.17
11605;BME280;5858;43.076;25.626;2023-12-04T12:50:26;99995.75;;;3.97;49.53
11605;BME280;5858;43.076;25.626;2023-12-04T12:52:54;100171.03;;;4.99;50.01
11605;BME280;5858;43.076;25.626;2023-12-04T12:55:23;100156.38;;;4.84;49.83
11605;BME280;5858;43.076;25.626;2023-12-04T12:57:52;100182.00;;;4.95;49.80
11605;BME280;5858;43.076;25.626;2023-12-04T13:00:19;100096.97;;;4.43;50.23
11605;BME280;5858;43.076;25.626;2023-12-04T13:02:46;100189.00;;;4.96;49.84
11605;BME280;5858;43.076;25.626;2023-12-04T13:05:14;99979.63;;;3.89;50.01
11605;BME280;5858;43.076;25.626;2023-12-04T13:07:43;100068.22;;;4.39;51.85
11605;BME280;5858;43.076;25.626;2023-12-04T13:10:10;100131.94;;;4.81;51.27
11605;BME280;5858;43.076;25.626;2023-12-04T13:12:37;100079.81;;;4.59;50.74
11605;BME280;5858;43.076;25.626;2023-12-04T13:15:06;100027.16;;;4.33;50.92
11605;BME280;5858;43.076;25.626;2023-12-04T13:17:35;100128.25;;;4.93;50.25
11605;BME280;5858;43.076;25.626;2023-12-04T13:20:02;100036.47;;;4.17;49.98
11605;BME280;5858;43.076;25.626;2023-12-04T13:22:31;100123.25;;;4.79;50.47
11605;BME280;5858;43.076;25.626;2023-12-04T13:24:58;100156.78;;;5.00;50.58
11605;BME280;5858;43.076;25.626;2023-12-04T13:27:27;100020.63;;;4.05;51.36
11605;BME280;5858;43.076;25.626;2023-12-04T13:29:54;100088.78;;;4.47;49.94
11605;BME280;5858;43.076;25.626;2023-12-04T13:32:21;100167.00;;;5.05;50.04
11605;BME280;5858;43.076;25.626;2023-12-04T13:34:48;100136.84;;;4.85;51.07
11605;BME280;5858;43.076;25.626;2023-12-04T13:37:15;100169.97;;;4.91;51.46
11605;BME280;5858;43.076;25.626;2023-12-04T13:39:44;100174.81;;;4.86;52.42
11605;BME280;5858;43.076;25.626;2023-12-04T13:42:16;100186.13;;;4.88;53.25
11605;BME280;5858;43.076;25.626;2023-12-04T13:45:00;100107.16;;;4.27;53.49
11605;BME280;5858;43.076;25.626;2023-12-04T13:47:28;100150.56;;;4.47;54.11
11605;BME280;5858;43.076;25.626;2023-12-04T13:49:55;100159.13;;;4.51;54.41
11605;BME280;5858;43.076;25.626;2023-12-04T13:52:23;100139.75;;;4.39;54.01
11605;BME280;5858;43.076;25.626;2023-12-04T13:54:52;100177.38;;;4.65;55.00
11605;BME280;5858;43.076;25.626;2023-12-04T13:57:20;100029.72;;;3.58;54.09
11605;BME280;5858;43.076;25.626;2023-12-04T13:59:52;100140.25;;;4.22;53.55
11605;BME280;5858;43.076;25.626;2023-12-04T14:02:19;100192.38;;;4.43;53.72
11605;BME280;5858;43.076;25.626;2023-12-04T14:05:14;100190.19;;;4.49;54.29
11605;BME280;5858;43.076;25.626;2023-12-04T14:07:57;99987.88;;;3.19;54.82
11605;BME280;5858;43.076;25.626;2023-12-04T14:10:32;100142.31;;;3.96;54.33
11605;BME280;5858;43.076;25.626;2023-12-04T14:13:04;100164.47;;;4.06;54.27
11605;BME280;5858;43.076;25.626;2023-12-04T14:15:31;100186.97;;;4.11;54.65
11605;BME280;5858;43.076;25.626;2023-12-04T14:17:59;100205.16;;;4.27;56.09
11605;BME280;5858;43.076;25.626;2023-12-04T14:20:26;100213.31;;;4.24;56.72
11605;BME280;5858;43.076;25.626;2023-12-04T14:22:53;100187.94;;;3.99;56.60
11605;BME280;5858;43.076;25.626;2023-12-04T14:25:21;100217.31;;;4.19;56.31
11605;BME280;5858;43.076;25.626;2023-12-04T14:27:49;100209.34;;;3.85;56.16
11605;BME280;5858;43.076;25.626;2023-12-04T14:30:16;100203.09;;;3.97;57.16
11605;BME280;5858;43.076;25.626;2023-12-04T14:32:43;100090.00;;;3.08;56.69
11605;BME280;5858;43.076;25.626;2023-12-04T14:35:11;100183.72;;;3.86;57.98
11605;BME280;5858;43.076;25.626;2023-12-04T14:37:39;100199.13;;;3.81;58.68
11605;BME280;5858;43.076;25.626;2023-12-04T14:40:09;100124.94;;;3.36;60.70
11605;BME280;5858;43.076;25.626;2023-12-04T14:42:46;100113.97;;;3.29;60.35
11605;BME280;5858;43.076;25.626;2023-12-04T14:45:14;100205.88;;;3.85;60.36
11605;BME280;5858;43.076;25.626;2023-12-04T14:47:45;100185.84;;;3.69;60.83
11605;BME280;5858;43.076;25.626;2023-12-04T14:50:13;100227.41;;;3.91;60.61
11605;BME280;5858;43.076;25.626;2023-12-04T14:52:42;100177.41;;;3.53;62.10
11605;BME280;5858;43.076;25.626;2023-12-04T14:55:15;100173.34;;;3.25;61.56
11605;BME280;5858;43.076;25.626;2023-12-04T14:58:01;100205.28;;;3.46;61.31
11605;BME280;5858;43.076;25.626;2023-12-04T15:00:49;100210.44;;;3.36;62.34
11605;BME280;5858;43.076;25.626;2023-12-04T15:03:30;100182.97;;;3.26;63.74
11605;BME280;5858;43.076;25.626;2023-12-04T15:06:17;100238.97;;;3.55;63.19
11605;BME280;5858;43.076;25.626;2023-12-04T15:09:06;100216.81;;;3.34;64.05
11605;BME280;5858;43.076;25.626;2023-12-04T15:11:53;100044.28;;;2.25;64.82
11605;BME280;5858;43.076;25.626;2023-12-04T15:14:36;100221.66;;;3.16;66.02
11605;BME280;5858;43.076;25.626;2023-12-04T15:17:10;100219.72;;;3.18;66.15
11605;BME280;5858;43.076;25.626;2023-12-04T15:19:45;100181.41;;;2.89;66.60
11605;BME280;5858;43.076;25.626;2023-12-04T15:22:42;100200.78;;;3.00;67.18
11605;BME280;5858;43.076;25.626;2023-12-04T15:25:11;100211.38;;;3.00;69.62
11605;BME280;5858;43.076;25.626;2023-12-04T15:27:46;100191.34;;;2.85;71.04
11605;BME280;5858;43.076;25.626;2023-12-04T15:30:12;100243.28;;;3.21;72.11
11605;BME280;5858;43.076;25.626;2023-12-04T15:32:41;100176.16;;;2.76;72.59
11605;BME280;5858;43.076;25.626;2023-12-04T15:35:07;100193.78;;;2.88;72.18
11605;BME280;5858;43.076;25.626;2023-12-04T15:37:35;100174.06;;;2.68;72.64
11605;BME280;5858;43.076;25.626;2023-12-04T15:40:03;100234.97;;;3.14;73.58
11605;BME280;5858;43.076;25.626;2023-12-04T15:42:30;100258.56;;;3.17;74.41
11605;BME280;5858;43.076;25.626;2023-12-04T15:44:56;100175.69;;;2.58;75.39
11605;BME280;5858;43.076;25.626;2023-12-04T15:47:23;100227.19;;;2.76;75.57
11605;BME280;5858;43.076;25.626;2023-12-04T15:49:58;100079.28;;;1.79;75.43
11605;BME280;5858;43.076;25.626;2023-12-04T15:52:25;100193.28;;;2.46;76.14
11605;BME280;5858;43.076;25.626;2023-12-04T15:54:52;100161.72;;;2.32;76.43
11605;BME280;5858;43.076;25.626;2023-12-04T15:57:18;100224.22;;;2.57;76.22
11605;BME280;5858;43.076;25.626;2023-12-04T15:59:45;100265.63;;;2.93;76.95
11605;BME280;5858;43.076;25.626;2023-12-04T16:02:18;100231.41;;;2.79;77.26
11605;BME280;5858;43.076;25.626;2023-12-04T16:04:45;100272.28;;;2.99;77.61
11605;BME280;5858;43.076;25.626;2023-12-04T16:07:13;100190.34;;;2.38;78.26
11605;BME280;5858;43.076;25.626;2023-12-04T16:09:40;100242.84;;;2.79;78.86
11605;BME280;5858;43.076;25.626;2023-12-04T16:12:07;100222.47;;;2.69;79.05
11605;BME280;5858;43.076;25.626;2023-12-04T16:14:34;100170.47;;;2.33;78.44
11605;BME280;5858;43.076;25.626;2023-12-04T16:17:01;100239.78;;;2.73;78.55
11605;BME280;5858;43.076;25.626;2023-12-04T16:19:28;100140.13;;;2.14;78.51
11605;BME280;5858;43.076;25.626;2023-12-04T16:21:56;100246.84;;;2.85;78.82
11605;BME280;5858;43.076;25.626;2023-12-04T16:24:24;100256.38;;;2.88;78.99
11605;BME280;5858;43.076;25.626;2023-12-04T16:26:51;100238.47;;;2.55;78.91
11605;BME280;5858;43.076;25.626;2023-12-04T16:29:20;100206.53;;;2.21;79.20
11605;BME280;5858;43.076;25.626;2023-12-04T16:31:49;100257.38;;;2.61;79.82
11605;BME280;5858;43.076;25.626;2023-12-04T16:34:16;100186.59;;;2.04;79.62